sensor_id;sensor_type;location;lat;lon;timestamp;temperature;humidity
12123;DHT22;6125;59.628;17.852;2023-06-10T00:01:57;8.60;94.50
12123;DHT22;6125;59.628;17.852;2023-06-10T00:04:25;8.60;95.30
12123;DHT22;6125;59.628;17.852;2023-06-10T00:06:52;8.50;95.80
12123;DHT22;6125;59.628;17.852;2023-06-10T00:09:20;8.40;96.20
12123;DHT22;6125;59.628;17.852;2023-06-10T00:11:47;8.00;96.20
12123;DHT22;6125;59.628;17.852;2023-06-10T00:14:15;7.70;97.10
12123;DHT22;6125;59.628;17.852;2023-06-10T00:16:43;7.50;98.10
12123;DHT22;6125;59.628;17.852;2023-06-10T00:19:11;7.30;98.90
12123;DHT22;6125;59.628;17.852;2023-06-10T00:21:41;7.40;99.90
12123;DHT22;6125;59.628;17.852;2023-06-10T00:24:10;7.40;99.90
12123;DHT22;6125;59.628;17.852;2023-06-10T00:26:38;7.60;99.90
12123;DHT22;6125;59.628;17.852;2023-06-10T00:29:06;7.60;99.90
12123;DHT22;6125;59.628;17.852;2023-06-10T00:31:34;7.70;99.90
12123;DHT22;6125;59.628;17.852;2023-06-10T00:34:02;7.60;99.90
12123;DHT22;6125;59.628;17.852;2023-06-10T00:36:30;7.60;99.90
12123;DHT22;6125;59.628;17.852;2023-06-10T00:38:57;7.50;99.90
12123;DHT22;6125;59.628;17.852;2023-06-10T00:41:24;7.40;99.90
12123;DHT22;6125;59.628;17.852;2023-06-10T00:43:52;7.30;99.90
12123;DHT22;6125;59.628;17.852;2023-06-10T00:46:20;7.20;99.90
12123;DHT22;6125;59.628;17.852;2023-06-10T00:48:48;7.20;99.90
12123;DHT22;6125;59.628;17.852;2023-06-10T00:51:17;7.20;99.90
12123;DHT22;6125;59.628;17.852;2023-06-10T00:53:45;7.30;99.90
12123;DHT22;6125;59.628;17.852;2023-06-10T00:56:13;7.20;99.90
12123;DHT22;6125;59.628;17.852;2023-06-10T00:58:41;7.20;99.90
12123;DHT22;6125;59.628;17.852;2023-06-10T01:01:08;7.10;99.90
12123;DHT22;6125;59.628;17.852;2023-06-10T01:03:36;7.00;99.90
12123;DHT22;6125;59.628;17.852;2023-06-10T01:06:09;7.00;99.90
12123;DHT22;6125;59.628;17.852;2023-06-10T01:08:44;6.90;99.90
12123;DHT22;6125;59.628;17.852;2023-06-10T01:11:18;6.90;99.90
12123;DHT22;6125;59.628;17.852;2023-06-10T01:13:46;6.90;99.90
12123;DHT22;6125;59.628;17.852;2023-06-10T01:16:15;6.80;99.90
12123;DHT22;6125;59.628;17.852;2023-06-10T01:18:42;6.70;99.90
12123;DHT22;6125;59.628;17.852;2023-06-10T01:21:16;6.60;99.90
12123;DHT22;6125;59.628;17.852;2023-06-10T01:23:43;6.50;99.90
12123;DHT22;6125;59.628;17.852;2023-06-10T01:26:11;6.40;99.90
12123;DHT22;6125;59.628;17.852;2023-06-10T01:28:43;6.30;99.90
12123;DHT22;6125;59.628;17.852;2023-06-10T01:31:17;6.30;99.90
12123;DHT22;6125;59.628;17.852;2023-06-10T01:33:49;6.30;99.90
12123;DHT22;6125;59.628;17.852;2023-06-10T01:36:21;6.30;99.90
12123;DHT22;6125;59.628;17.852;2023-06-10T01:38:50;6.20;99.90
12123;DHT22;6125;59.628;17.852;2023-06-10T01:41:18;6.10;99.90
12123;DHT22;6125;59.628;17.852;2023-06-10T01:43:47;5.90;99.90
12123;DHT22;6125;59.628;17.852;2023-06-10T01:46:14;5.70;99.90
12123;DHT22;6125;59.628;17.852;2023-06-10T01:48:45;5.60;99.90
12123;DHT22;6125;59.628;17.852;2023-06-10T01:51:12;5.50;99.90
12123;DHT22;6125;59.628;17.852;2023-06-10T01:53:40;5.50;99.90
12123;DHT22;6125;59.628;17.852;2023-06-10T01:56:07;5.50;99.90
12123;DHT22;6125;59.628;17.852;2023-06-10T01:58:35;5.50;99.90
12123;DHT22;6125;59.628;17.852;2023-06-10T02:01:02;5.60;99.90
12123;DHT22;6125;59.628;17.852;2023-06-10T02:03:29;5.70;99.90
12123;DHT22;6125;59.628;17.852;2023-06-10T02:05:56;5.80;99.90
12123;DHT22;6125;59.628;17.852;2023-06-10T02:08:23;5.90;99.90
12123;DHT22;6125;59.628;17.852;2023-06-10T02:10:52;5.70;99.90
12123;DHT22;6125;59.628;17.852;2023-06-10T02:13:19;5.50;99.90
12123;DHT22;6125;59.628;17.852;2023-06-10T02:15:46;5.40;99.90
12123;DHT22;6125;59.628;17.852;2023-06-10T02:18:13;5.40;99.90
12123;DHT22;6125;59.628;17.852;2023-06-10T02:20:40;5.40;99.90
12123;DHT22;6125;59.628;17.852;2023-06-10T02:23:07;5.50;99.90
12123;DHT22;6125;59.628;17.852;2023-06-10T02:25:35;5.60;99.90
12123;DHT22;6125;59.628;17.852;2023-06-10T02:28:04;5.70;99.90
12123;DHT22;6125;59.628;17.852;2023-06-10T02:30:31;5.70;99.90
12123;DHT22;6125;59.628;17.852;2023-06-10T02:32:58;5.60;99.90
12123;DHT22;6125;59.628;17.852;2023-06-10T02:35:26;5.60;99.90
12123;DHT22;6125;59.628;17.852;2023-06-10T02:37:53;5.60;99.90
12123;DHT22;6125;59.628;17.852;2023-06-10T02:40:21;5.70;99.90
12123;DHT22;6125;59.628;17.852;2023-06-10T02:42:48;5.70;99.90
12123;DHT22;6125;59.628;17.852;2023-06-10T02:45:16;5.80;99.90
12123;DHT22;6125;59.628;17.852;2023-06-10T02:47:43;5.70;99.90
12123;DHT22;6125;59.628;17.852;2023-06-10T02:50:10;5.50;99.90
12123;DHT22;6125;59.628;17.852;2023-06-10T02:52:37;5.40;99.90
12123;DHT22;6125;59.628;17.852;2023-06-10T02:55:05;5.50;99.90
12123;DHT22;6125;59.628;17.852;2023-06-10T02:57:40;5.70;99.90
12123;DHT22;6125;59.628;17.852;2023-06-10T03:00:08;5.90;99.90
12123;DHT22;6125;59.628;17.852;2023-06-10T03:02:38;6.10;99.90
12123;DHT22;6125;59.628;17.852;2023-06-10T03:05:05;6.30;99.90
12123;DHT22;6125;59.628;17.852;2023-06-10T03:07:35;6.40;99.90
12123;DHT22;6125;59.628;17.852;2023-06-10T03:10:03;6.30;99.90
12123;DHT22;6125;59.628;17.852;2023-06-10T03:12:30;6.20;99.90
12123;DHT22;6125;59.628;17.852;2023-06-10T03:14:57;6.20;99.90
12123;DHT22;6125;59.628;17.852;2023-06-10T03:17:25;6.20;99.90
12123;DHT22;6125;59.628;17.852;2023-06-10T03:19:53;6.30;99.90
12123;DHT22;6125;59.628;17.852;2023-06-10T03:22:21;6.50;99.90
12123;DHT22;6125;59.628;17.852;2023-06-10T03:24:55;6.70;99.90
12123;DHT22;6125;59.628;17.852;2023-06-10T03:27:23;6.90;99.90
12123;DHT22;6125;59.628;17.852;2023-06-10T03:29:50;7.10;99.90
12123;DHT22;6125;59.628;17.852;2023-06-10T03:32:17;7.20;99.90
12123;DHT22;6125;59.628;17.852;2023-06-10T03:34:44;7.30;99.90
12123;DHT22;6125;59.628;17.852;2023-06-10T03:37:14;7.40;99.90
12123;DHT22;6125;59.628;17.852;2023-06-10T03:39:41;7.30;99.90
12123;DHT22;6125;59.628;17.852;2023-06-10T03:42:08;7.40;99.90
12123;DHT22;6125;59.628;17.852;2023-06-10T03:44:35;7.50;99.90
12123;DHT22;6125;59.628;17.852;2023-06-10T03:47:04;7.50;99.90
12123;DHT22;6125;59.628;17.852;2023-06-10T03:49:31;7.60;99.90
12123;DHT22;6125;59.628;17.852;2023-06-10T03:51:58;7.50;99.90
12123;DHT22;6125;59.628;17.852;2023-06-10T03:54:27;7.50;99.90
12123;DHT22;6125;59.628;17.852;2023-06-10T03:56:54;7.50;99.90
12123;DHT22;6125;59.628;17.852;2023-06-10T03:59:21;7.50;99.90
12123;DHT22;6125;59.628;17.852;2023-06-10T04:01:48;7.60;99.90
12123;DHT22;6125;59.628;17.852;2023-06-10T04:04:15;7.60;99.90
12123;DHT22;6125;59.628;17.852;2023-06-10T04:06:43;7.60;99.90
12123;DHT22;6125;59.628;17.852;2023-06-10T04:09:10;7.70;99.90
12123;DHT22;6125;59.628;17.852;2023-06-10T04:11:39;7.70;99.90
12123;DHT22;6125;59.628;17.852;2023-06-10T04:14:06;7.80;99.90
12123;DHT22;6125;59.628;17.852;2023-06-10T04:16:33;7.90;99.90
12123;DHT22;6125;59.628;17.852;2023-06-10T04:19:01;8.00;99.90
12123;DHT22;6125;59.628;17.852;2023-06-10T04:21:28;8.20;99.90
12123;DHT22;6125;59.628;17.852;2023-06-10T04:23:55;8.30;99.90
12123;DHT22;6125;59.628;17.852;2023-06-10T04:26:22;8.40;99.90
12123;DHT22;6125;59.628;17.852;2023-06-10T04:28:50;8.50;99.90
12123;DHT22;6125;59.628;17.852;2023-06-10T04:31:18;8.70;99.90
12123;DHT22;6125;59.628;17.852;2023-06-10T04:33:45;8.90;99.90
12123;DHT22;6125;59.628;17.852;2023-06-10T04:36:12;9.00;99.90
12123;DHT22;6125;59.628;17.852;2023-06-10T04:38:40;9.10;99.90
12123;DHT22;6125;59.628;17.852;2023-06-10T04:41:07;9.10;99.90
12123;DHT22;6125;59.628;17.852;2023-06-10T04:43:34;9.20;99.90
12123;DHT22;6125;59.628;17.852;2023-06-10T04:46:03;9.30;99.90
12123;DHT22;6125;59.628;17.852;2023-06-10T04:48:30;9.50;99.90
12123;DHT22;6125;59.628;17.852;2023-06-10T04:51:00;9.70;99.90
12123;DHT22;6125;59.628;17.852;2023-06-10T04:53:27;9.70;99.90
12123;DHT22;6125;59.628;17.852;2023-06-10T04:55:56;9.70;99.90
12123;DHT22;6125;59.628;17.852;2023-06-10T04:58:24;9.80;99.90
12123;DHT22;6125;59.628;17.852;2023-06-10T05:00:51;9.90;99.90
12123;DHT22;6125;59.628;17.852;2023-06-10T05:03:19;10.10;99.90
12123;DHT22;6125;59.628;17.852;2023-06-10T05:05:46;10.20;99.90
12123;DHT22;6125;59.628;17.852;2023-06-10T05:08:13;10.30;99.90
12123;DHT22;6125;59.628;17.852;2023-06-10T05:10:40;10.30;99.90
12123;DHT22;6125;59.628;17.852;2023-06-10T05:13:07;10.30;99.90
12123;DHT22;6125;59.628;17.852;2023-06-10T05:15:34;10.30;99.90
12123;DHT22;6125;59.628;17.852;2023-06-10T05:18:02;10.30;99.90
12123;DHT22;6125;59.628;17.852;2023-06-10T05:20:31;10.30;99.90
12123;DHT22;6125;59.628;17.852;2023-06-10T05:22:58;10.40;99.90
12123;DHT22;6125;59.628;17.852;2023-06-10T05:25:26;10.50;99.90
12123;DHT22;6125;59.628;17.852;2023-06-10T05:27:53;10.70;99.90
12123;DHT22;6125;59.628;17.852;2023-06-10T05:30:20;10.80;99.90
12123;DHT22;6125;59.628;17.852;2023-06-10T05:32:48;10.90;99.90
12123;DHT22;6125;59.628;17.852;2023-06-10T05:35:16;11.00;99.90
12123;DHT22;6125;59.628;17.852;2023-06-10T05:37:45;11.10;99.90
12123;DHT22;6125;59.628;17.852;2023-06-10T05:40:12;11.20;99.90
12123;DHT22;6125;59.628;17.852;2023-06-10T05:42:39;11.30;99.90
12123;DHT22;6125;59.628;17.852;2023-06-10T05:45:08;11.40;99.90
12123;DHT22;6125;59.628;17.852;2023-06-10T05:47:35;11.40;99.90
12123;DHT22;6125;59.628;17.852;2023-06-10T05:50:02;11.50;99.90
12123;DHT22;6125;59.628;17.852;2023-06-10T05:52:32;11.60;99.90
12123;DHT22;6125;59.628;17.852;2023-06-10T05:55:01;11.70;99.90
12123;DHT22;6125;59.628;17.852;2023-06-10T05:57:28;11.80;99.90
12123;DHT22;6125;59.628;17.852;2023-06-10T05:59:55;11.90;99.90
12123;DHT22;6125;59.628;17.852;2023-06-10T06:02:22;12.00;99.90
12123;DHT22;6125;59.628;17.852;2023-06-10T06:04:49;12.10;99.90
12123;DHT22;6125;59.628;17.852;2023-06-10T06:07:16;12.20;99.90
12123;DHT22;6125;59.628;17.852;2023-06-10T06:09:46;12.40;99.90
12123;DHT22;6125;59.628;17.852;2023-06-10T06:12:14;12.40;99.90
12123;DHT22;6125;59.628;17.852;2023-06-10T06:14:41;12.50;99.90
12123;DHT22;6125;59.628;17.852;2023-06-10T06:17:10;12.60;99.90
12123;DHT22;6125;59.628;17.852;2023-06-10T06:19:37;12.70;99.90
12123;DHT22;6125;59.628;17.852;2023-06-10T06:22:04;12.80;99.90
12123;DHT22;6125;59.628;17.852;2023-06-10T06:24:32;12.90;99.90
12123;DHT22;6125;59.628;17.852;2023-06-10T06:26:59;13.00;99.90
12123;DHT22;6125;59.628;17.852;2023-06-10T06:29:27;13.10;99.90
12123;DHT22;6125;59.628;17.852;2023-06-10T06:31:55;13.30;99.90
12123;DHT22;6125;59.628;17.852;2023-06-10T06:34:22;13.40;99.90
12123;DHT22;6125;59.628;17.852;2023-06-10T06:36:49;13.50;99.90
12123;DHT22;6125;59.628;17.852;2023-06-10T06:39:16;13.60;99.90
12123;DHT22;6125;59.628;17.852;2023-06-10T06:41:43;13.70;99.90
12123;DHT22;6125;59.628;17.852;2023-06-10T06:44:10;13.80;99.90
12123;DHT22;6125;59.628;17.852;2023-06-10T06:46:39;13.80;99.90
12123;DHT22;6125;59.628;17.852;2023-06-10T06:49:06;14.00;99.90
12123;DHT22;6125;59.628;17.852;2023-06-10T06:51:33;14.10;99.90
12123;DHT22;6125;59.628;17.852;2023-06-10T06:54:01;14.10;99.90
12123;DHT22;6125;59.628;17.852;2023-06-10T06:56:28;14.20;99.90
12123;DHT22;6125;59.628;17.852;2023-06-10T06:58:55;14.20;99.90
12123;DHT22;6125;59.628;17.852;2023-06-10T07:01:22;14.30;99.90
12123;DHT22;6125;59.628;17.852;2023-06-10T07:03:50;14.40;99.90
12123;DHT22;6125;59.628;17.852;2023-06-10T07:06:17;14.50;99.90
12123;DHT22;6125;59.628;17.852;2023-06-10T07:08:45;14.60;99.90
12123;DHT22;6125;59.628;17.852;2023-06-10T07:11:12;14.80;99.90
12123;DHT22;6125;59.628;17.852;2023-06-10T07:13:40;15.00;99.90
12123;DHT22;6125;59.628;17.852;2023-06-10T07:16:07;15.20;99.90
12123;DHT22;6125;59.628;17.852;2023-06-10T07:18:34;15.40;99.90
12123;DHT22;6125;59.628;17.852;2023-06-10T07:21:03;15.60;99.90
12123;DHT22;6125;59.628;17.852;2023-06-10T07:23:30;15.70;99.90
12123;DHT22;6125;59.628;17.852;2023-06-10T07:25:57;15.90;99.90
12123;DHT22;6125;59.628;17.852;2023-06-10T07:28:24;16.20;99.90
12123;DHT22;6125;59.628;17.852;2023-06-10T07:30:52;16.30;99.90
12123;DHT22;6125;59.628;17.852;2023-06-10T07:33:19;16.40;99.90
12123;DHT22;6125;59.628;17.852;2023-06-10T07:35:46;16.30;99.90
12123;DHT22;6125;59.628;17.852;2023-06-10T07:38:14;16.10;99.90
12123;DHT22;6125;59.628;17.852;2023-06-10T07:40:41;16.00;99.90
12123;DHT22;6125;59.628;17.852;2023-06-10T07:43:08;16.00;99.90
12123;DHT22;6125;59.628;17.852;2023-06-10T07:45:36;16.10;99.90
12123;DHT22;6125;59.628;17.852;2023-06-10T07:48:03;16.10;99.90
12123;DHT22;6125;59.628;17.852;2023-06-10T07:50:30;16.10;99.90
12123;DHT22;6125;59.628;17.852;2023-06-10T07:52:57;16.00;99.90
12123;DHT22;6125;59.628;17.852;2023-06-10T07:55:26;16.00;99.90
12123;DHT22;6125;59.628;17.852;2023-06-10T07:57:53;16.10;99.90
12123;DHT22;6125;59.628;17.852;2023-06-10T08:00:20;16.20;99.90
12123;DHT22;6125;59.628;17.852;2023-06-10T08:02:48;16.30;99.90
12123;DHT22;6125;59.628;17.852;2023-06-10T08:05:16;16.50;99.90
12123;DHT22;6125;59.628;17.852;2023-06-10T08:07:44;16.50;99.90
12123;DHT22;6125;59.628;17.852;2023-06-10T08:10:11;16.50;99.90
12123;DHT22;6125;59.628;17.852;2023-06-10T08:12:39;16.50;99.90
12123;DHT22;6125;59.628;17.852;2023-06-10T08:15:07;16.50;99.90
12123;DHT22;6125;59.628;17.852;2023-06-10T08:17:34;16.50;99.90
12123;DHT22;6125;59.628;17.852;2023-06-10T08:20:02;16.60;99.90
12123;DHT22;6125;59.628;17.852;2023-06-10T08:22:29;16.60;99.70
12123;DHT22;6125;59.628;17.852;2023-06-10T08:24:56;16.60;99.30
12123;DHT22;6125;59.628;17.852;2023-06-10T08:27:24;16.60;99.40
12123;DHT22;6125;59.628;17.852;2023-06-10T08:29:52;16.70;99.40
12123;DHT22;6125;59.628;17.852;2023-06-10T08:32:19;16.90;98.90
12123;DHT22;6125;59.628;17.852;2023-06-10T08:34:46;17.10;98.50
12123;DHT22;6125;59.628;17.852;2023-06-10T08:37:13;17.20;97.70
12123;DHT22;6125;59.628;17.852;2023-06-10T08:39:47;17.40;97.80
12123;DHT22;6125;59.628;17.852;2023-06-10T08:42:21;17.50;96.50
12123;DHT22;6125;59.628;17.852;2023-06-10T08:44:53;17.70;96.40
12123;DHT22;6125;59.628;17.852;2023-06-10T08:47:23;17.80;95.80
12123;DHT22;6125;59.628;17.852;2023-06-10T08:49:51;17.90;95.50
12123;DHT22;6125;59.628;17.852;2023-06-10T08:52:20;18.00;94.30
12123;DHT22;6125;59.628;17.852;2023-06-10T08:54:52;18.10;94.50
12123;DHT22;6125;59.628;17.852;2023-06-10T08:57:21;18.20;94.30
12123;DHT22;6125;59.628;17.852;2023-06-10T08:59:49;18.30;92.90
12123;DHT22;6125;59.628;17.852;2023-06-10T09:02:18;18.30;93.10
12123;DHT22;6125;59.628;17.852;2023-06-10T09:04:46;18.30;92.70
12123;DHT22;6125;59.628;17.852;2023-06-10T09:07:15;18.50;91.70
12123;DHT22;6125;59.628;17.852;2023-06-10T09:09:43;18.50;91.60
12123;DHT22;6125;59.628;17.852;2023-06-10T09:12:11;18.50;91.30
12123;DHT22;6125;59.628;17.852;2023-06-10T09:14:39;18.60;91.70
12123;DHT22;6125;59.628;17.852;2023-06-10T09:17:06;18.70;91.40
12123;DHT22;6125;59.628;17.852;2023-06-10T09:19:35;18.80;91.20
12123;DHT22;6125;59.628;17.852;2023-06-10T09:22:04;18.80;91.20
12123;DHT22;6125;59.628;17.852;2023-06-10T09:24:31;18.90;90.80
12123;DHT22;6125;59.628;17.852;2023-06-10T09:27:03;18.90;90.70
12123;DHT22;6125;59.628;17.852;2023-06-10T09:29:30;19.00;90.60
12123;DHT22;6125;59.628;17.852;2023-06-10T09:31:58;19.00;90.40
12123;DHT22;6125;59.628;17.852;2023-06-10T09:34:25;19.10;90.80
12123;DHT22;6125;59.628;17.852;2023-06-10T09:36:54;19.10;90.90
12123;DHT22;6125;59.628;17.852;2023-06-10T09:39:21;19.20;90.70
12123;DHT22;6125;59.628;17.852;2023-06-10T09:41:48;19.20;90.70
12123;DHT22;6125;59.628;17.852;2023-06-10T09:44:16;19.20;90.20
12123;DHT22;6125;59.628;17.852;2023-06-10T09:46:45;19.20;90.40
12123;DHT22;6125;59.628;17.852;2023-06-10T09:49:13;19.20;90.10
12123;DHT22;6125;59.628;17.852;2023-06-10T09:51:49;19.20;90.20
12123;DHT22;6125;59.628;17.852;2023-06-10T09:54:19;19.20;90.10
12123;DHT22;6125;59.628;17.852;2023-06-10T09:56:47;19.40;89.90
12123;DHT22;6125;59.628;17.852;2023-06-10T09:59:14;19.40;89.80
12123;DHT22;6125;59.628;17.852;2023-06-10T10:01:41;19.40;89.50
12123;DHT22;6125;59.628;17.852;2023-06-10T10:04:09;19.40;88.80
12123;DHT22;6125;59.628;17.852;2023-06-10T10:06:36;19.40;88.40
12123;DHT22;6125;59.628;17.852;2023-06-10T10:09:04;19.40;88.10
12123;DHT22;6125;59.628;17.852;2023-06-10T10:11:34;19.40;88.10
12123;DHT22;6125;59.628;17.852;2023-06-10T10:14:04;19.50;87.90
12123;DHT22;6125;59.628;17.852;2023-06-10T10:16:36;19.40;87.70
12123;DHT22;6125;59.628;17.852;2023-06-10T10:19:10;19.50;88.20
12123;DHT22;6125;59.628;17.852;2023-06-10T10:21:43;19.50;87.80
12123;DHT22;6125;59.628;17.852;2023-06-10T10:24:16;19.60;87.40
12123;DHT22;6125;59.628;17.852;2023-06-10T10:26:46;19.70;88.50
12123;DHT22;6125;59.628;17.852;2023-06-10T10:29:20;19.70;87.20
12123;DHT22;6125;59.628;17.852;2023-06-10T10:31:50;19.80;88.00
12123;DHT22;6125;59.628;17.852;2023-06-10T10:34:21;19.80;87.20
12123;DHT22;6125;59.628;17.852;2023-06-10T10:36:51;19.90;87.30
12123;DHT22;6125;59.628;17.852;2023-06-10T10:39:19;20.10;85.70
12123;DHT22;6125;59.628;17.852;2023-06-10T10:41:49;20.10;85.80
12123;DHT22;6125;59.628;17.852;2023-06-10T10:44:17;20.20;85.80
12123;DHT22;6125;59.628;17.852;2023-06-10T10:46:44;20.30;85.60
12123;DHT22;6125;59.628;17.852;2023-06-10T10:49:16;20.50;85.00
12123;DHT22;6125;59.628;17.852;2023-06-10T10:51:56;20.50;84.80
12123;DHT22;6125;59.628;17.852;2023-06-10T10:54:31;20.60;83.80
12123;DHT22;6125;59.628;17.852;2023-06-10T10:57:13;20.70;81.90
12123;DHT22;6125;59.628;17.852;2023-06-10T10:59:52;20.80;81.90
12123;DHT22;6125;59.628;17.852;2023-06-10T11:02:36;20.80;81.80
12123;DHT22;6125;59.628;17.852;2023-06-10T11:05:05;20.90;81.20
12123;DHT22;6125;59.628;17.852;2023-06-10T11:07:33;20.90;79.40
12123;DHT22;6125;59.628;17.852;2023-06-10T11:10:01;20.70;79.70
12123;DHT22;6125;59.628;17.852;2023-06-10T11:12:51;20.80;79.00
12123;DHT22;6125;59.628;17.852;2023-06-10T11:15:20;20.80;78.80
12123;DHT22;6125;59.628;17.852;2023-06-10T11:18:11;21.10;79.20
12123;DHT22;6125;59.628;17.852;2023-06-10T11:20:45;21.30;78.10
12123;DHT22;6125;59.628;17.852;2023-06-10T11:23:41;21.40;76.90
12123;DHT22;6125;59.628;17.852;2023-06-10T11:26:10;21.60;75.80
12123;DHT22;6125;59.628;17.852;2023-06-10T11:28:39;21.70;75.50
12123;DHT22;6125;59.628;17.852;2023-06-10T11:31:06;21.80;74.80
12123;DHT22;6125;59.628;17.852;2023-06-10T11:33:37;21.80;74.20
12123;DHT22;6125;59.628;17.852;2023-06-10T11:36:06;21.80;72.60
12123;DHT22;6125;59.628;17.852;2023-06-10T11:38:34;21.80;73.00
12123;DHT22;6125;59.628;17.852;2023-06-10T11:41:02;21.80;71.90
12123;DHT22;6125;59.628;17.852;2023-06-10T11:43:30;21.90;71.30
12123;DHT22;6125;59.628;17.852;2023-06-10T11:45:58;22.00;71.50
12123;DHT22;6125;59.628;17.852;2023-06-10T11:48:25;22.10;69.70
12123;DHT22;6125;59.628;17.852;2023-06-10T11:50:56;22.10;70.80
12123;DHT22;6125;59.628;17.852;2023-06-10T11:53:23;22.20;70.40
12123;DHT22;6125;59.628;17.852;2023-06-10T11:55:50;22.30;69.10
12123;DHT22;6125;59.628;17.852;2023-06-10T11:58:19;22.20;68.00
12123;DHT22;6125;59.628;17.852;2023-06-10T12:00:47;22.30;68.40
12123;DHT22;6125;59.628;17.852;2023-06-10T12:03:16;22.30;68.30
12123;DHT22;6125;59.628;17.852;2023-06-10T12:05:55;22.50;67.90
12123;DHT22;6125;59.628;17.852;2023-06-10T12:08:23;22.60;67.40
12123;DHT22;6125;59.628;17.852;2023-06-10T12:10:50;22.70;68.00
12123;DHT22;6125;59.628;17.852;2023-06-10T12:13:18;22.80;68.60
12123;DHT22;6125;59.628;17.852;2023-06-10T12:15:45;23.00;67.10
12123;DHT22;6125;59.628;17.852;2023-06-10T12:18:17;23.20;66.70
12123;DHT22;6125;59.628;17.852;2023-06-10T12:20:44;23.20;65.60
12123;DHT22;6125;59.628;17.852;2023-06-10T12:23:13;23.30;65.30
12123;DHT22;6125;59.628;17.852;2023-06-10T12:25:49;23.30;66.50
12123;DHT22;6125;59.628;17.852;2023-06-10T12:28:17;23.50;65.70
12123;DHT22;6125;59.628;17.852;2023-06-10T12:30:46;23.60;64.50
12123;DHT22;6125;59.628;17.852;2023-06-10T12:33:17;23.60;65.00
12123;DHT22;6125;59.628;17.852;2023-06-10T12:35:48;23.60;63.30
12123;DHT22;6125;59.628;17.852;2023-06-10T12:38:21;23.60;63.30
12123;DHT22;6125;59.628;17.852;2023-06-10T12:40:50;23.50;62.40
12123;DHT22;6125;59.628;17.852;2023-06-10T12:43:20;23.30;62.70
12123;DHT22;6125;59.628;17.852;2023-06-10T12:45:47;23.20;62.80
12123;DHT22;6125;59.628;17.852;2023-06-10T12:48:20;23.40;62.90
12123;DHT22;6125;59.628;17.852;2023-06-10T12:50:51;23.40;60.30
12123;DHT22;6125;59.628;17.852;2023-06-10T12:53:18;23.40;60.00
12123;DHT22;6125;59.628;17.852;2023-06-10T12:55:46;23.50;59.10
12123;DHT22;6125;59.628;17.852;2023-06-10T12:58:13;23.40;60.00
12123;DHT22;6125;59.628;17.852;2023-06-10T13:00:41;23.40;60.10
12123;DHT22;6125;59.628;17.852;2023-06-10T13:03:09;23.50;59.80
12123;DHT22;6125;59.628;17.852;2023-06-10T13:05:38;23.50;61.00
12123;DHT22;6125;59.628;17.852;2023-06-10T13:08:05;23.60;60.70
12123;DHT22;6125;59.628;17.852;2023-06-10T13:10:33;23.70;60.30
12123;DHT22;6125;59.628;17.852;2023-06-10T13:13:00;23.70;60.40
12123;DHT22;6125;59.628;17.852;2023-06-10T13:15:28;23.70;60.90
12123;DHT22;6125;59.628;17.852;2023-06-10T13:17:55;23.80;61.50
12123;DHT22;6125;59.628;17.852;2023-06-10T13:20:22;23.90;61.10
12123;DHT22;6125;59.628;17.852;2023-06-10T13:22:50;24.10;61.80
12123;DHT22;6125;59.628;17.852;2023-06-10T13:25:18;24.30;61.30
12123;DHT22;6125;59.628;17.852;2023-06-10T13:27:45;24.30;61.00
12123;DHT22;6125;59.628;17.852;2023-06-10T13:30:12;24.40;62.60
12123;DHT22;6125;59.628;17.852;2023-06-10T13:32:39;24.50;63.00
12123;DHT22;6125;59.628;17.852;2023-06-10T13:35:07;24.70;63.80
12123;DHT22;6125;59.628;17.852;2023-06-10T13:37:35;24.80;63.60
12123;DHT22;6125;59.628;17.852;2023-06-10T13:40:05;24.80;64.10
12123;DHT22;6125;59.628;17.852;2023-06-10T13:42:33;24.80;64.50
12123;DHT22;6125;59.628;17.852;2023-06-10T13:45:01;24.80;64.90
12123;DHT22;6125;59.628;17.852;2023-06-10T13:47:28;24.90;64.40
12123;DHT22;6125;59.628;17.852;2023-06-10T13:49:55;25.00;64.90
12123;DHT22;6125;59.628;17.852;2023-06-10T13:52:22;25.10;65.30
12123;DHT22;6125;59.628;17.852;2023-06-10T13:54:49;25.20;64.10
12123;DHT22;6125;59.628;17.852;2023-06-10T13:57:18;25.20;64.50
12123;DHT22;6125;59.628;17.852;2023-06-10T13:59:45;25.20;63.90
12123;DHT22;6125;59.628;17.852;2023-06-10T14:02:12;25.00;64.20
12123;DHT22;6125;59.628;17.852;2023-06-10T14:04:39;24.90;65.50
12123;DHT22;6125;59.628;17.852;2023-06-10T14:07:13;24.90;64.90
12123;DHT22;6125;59.628;17.852;2023-06-10T14:09:41;25.00;64.50
12123;DHT22;6125;59.628;17.852;2023-06-10T14:12:08;25.00;64.80
12123;DHT22;6125;59.628;17.852;2023-06-10T14:14:37;24.90;65.50
12123;DHT22;6125;59.628;17.852;2023-06-10T14:17:05;25.10;65.20
12123;DHT22;6125;59.628;17.852;2023-06-10T14:19:32;25.40;64.80
12123;DHT22;6125;59.628;17.852;2023-06-10T14:21:59;25.50;64.60
12123;DHT22;6125;59.628;17.852;2023-06-10T14:24:26;25.60;63.20
12123;DHT22;6125;59.628;17.852;2023-06-10T14:26:53;25.40;63.70
12123;DHT22;6125;59.628;17.852;2023-06-10T14:29:20;25.30;63.60
12123;DHT22;6125;59.628;17.852;2023-06-10T14:31:49;25.30;64.00
12123;DHT22;6125;59.628;17.852;2023-06-10T14:34:17;25.50;63.30
12123;DHT22;6125;59.628;17.852;2023-06-10T14:36:44;25.60;63.00
12123;DHT22;6125;59.628;17.852;2023-06-10T14:39:11;25.50;63.30
12123;DHT22;6125;59.628;17.852;2023-06-10T14:41:38;25.50;63.90
12123;DHT22;6125;59.628;17.852;2023-06-10T14:44:05;25.60;63.10
12123;DHT22;6125;59.628;17.852;2023-06-10T14:46:32;25.90;63.30
12123;DHT22;6125;59.628;17.852;2023-06-10T14:49:01;26.00;62.50
12123;DHT22;6125;59.628;17.852;2023-06-10T14:51:28;26.10;62.60
12123;DHT22;6125;59.628;17.852;2023-06-10T14:53:55;26.30;61.90
12123;DHT22;6125;59.628;17.852;2023-06-10T14:56:23;26.60;61.30
12123;DHT22;6125;59.628;17.852;2023-06-10T14:58:51;26.90;60.60
12123;DHT22;6125;59.628;17.852;2023-06-10T15:01:18;27.10;59.60
12123;DHT22;6125;59.628;17.852;2023-06-10T15:03:45;27.00;59.60
12123;DHT22;6125;59.628;17.852;2023-06-10T15:06:14;27.20;59.10
12123;DHT22;6125;59.628;17.852;2023-06-10T15:08:46;27.20;59.00
12123;DHT22;6125;59.628;17.852;2023-06-10T15:11:14;27.50;59.30
12123;DHT22;6125;59.628;17.852;2023-06-10T15:13:41;28.00;58.90
12123;DHT22;6125;59.628;17.852;2023-06-10T15:16:08;28.40;58.20
12123;DHT22;6125;59.628;17.852;2023-06-10T15:18:35;29.10;57.90
12123;DHT22;6125;59.628;17.852;2023-06-10T15:21:03;29.80;57.60
12123;DHT22;6125;59.628;17.852;2023-06-10T15:23:31;30.70;57.50
12123;DHT22;6125;59.628;17.852;2023-06-10T15:25:58;31.70;56.40
12123;DHT22;6125;59.628;17.852;2023-06-10T15:28:25;32.50;55.80
12123;DHT22;6125;59.628;17.852;2023-06-10T15:30:53;33.00;53.90
12123;DHT22;6125;59.628;17.852;2023-06-10T15:33:20;32.60;52.40
12123;DHT22;6125;59.628;17.852;2023-06-10T15:35:47;31.80;52.60
12123;DHT22;6125;59.628;17.852;2023-06-10T15:38:14;31.70;52.40
12123;DHT22;6125;59.628;17.852;2023-06-10T15:40:43;31.90;52.00
12123;DHT22;6125;59.628;17.852;2023-06-10T15:43:10;31.70;51.70